Terminal Aerodrome Forecast
Issued by NWS Tulsa, OK

Home | Current Version | Previous Version | Text Only | Print | Product List | Glossary On
Versions: 1 2 3 4 5 6 7 8 9 10 11 12 13 14 15 16 17 18
896
FTUS44 KTSA 181742
TAFTUL
TAF
KTUL 181742Z 1818/1918 19008KT P6SM BKN010
     FM181900 20008KT P6SM SKC
     FM190100 17004KT P6SM SCT012
     FM190300 18005KT 5SM BR BKN010
     FM190600 18006KT 1SM BR OVC007
     FM191500 19003KT 3SM BR OVC008=

USA.gov is the U.S. government's official web portal to all federal, state and local government web resources and services.